Time;durP1;ratioP1;P1;durP2;ratioP2;P2;SDS_P1;SDS_P2;PMS_P1;PMS_P2;Temp;Humidity;BMP_temperature;BMP_pressure;BME280_temperature;BME280_humidity;BME280_pressure;Samples;Min_cycle;Max_cycle;Signal;HPM_P1;HPM_P2
2022/08/08 00:00:58;;;;;;;2.20;0.73;;;17.30;99.90;;;;;;4972103;28;20183;-73
2022/08/08 00:03:49;;;;;;;1.07;0.70;;;17.10;99.90;;;;;;4971304;28;20194;-68
2022/08/08 00:06:32;;;;;;;3.13;0.87;;;17.30;99.90;;;;;;4953991;28;20219;-68
2022/08/08 00:09:35;;;;;;;4.73;0.83;;;17.40;99.90;;;;;;4955018;28;20207;-69
2022/08/08 00:12:12;;;;;;;2.37;0.67;;;17.90;99.90;;;;;;4954371;28;20190;-70
2022/08/08 00:14:50;;;;;;;1.57;0.73;;;17.80;99.90;;;;;;4961527;28;20182;-68
2022/08/08 00:17:27;;;;;;;1.60;0.60;;;17.80;99.90;;;;;;4972334;28;20176;-69
2022/08/08 00:20:03;;;;;;;2.00;0.70;;;17.30;99.90;;;;;;4972814;28;20209;-69
2022/08/08 00:22:51;;;;;;;1.30;0.50;;;18.00;99.90;;;;;;4969854;28;20656;-69
2022/08/08 00:25:38;;;;;;;2.03;0.60;;;18.30;99.90;;;;;;4971028;28;20286;-71
2022/08/08 00:28:08;;;;;;;2.30;0.60;;;18.40;99.90;;;;;;4972369;28;20615;-71
2022/08/08 00:30:40;;;;;;;3.20;0.63;;;18.30;99.90;;;;;;4972533;28;20179;-69
2022/08/08 00:33:19;;;;;;;2.93;0.50;;;18.60;99.90;;;;;;4971583;28;20555;-67
2022/08/08 00:36:15;;;;;;;4.83;0.83;;;18.30;99.90;;;;;;4968881;28;20726;-71
2022/08/08 00:39:09;;;;;;;2.13;0.60;;;18.60;99.90;;;;;;4969932;28;20225;-69
2022/08/08 00:41:37;;;;;;;0.77;0.50;;;19.00;99.90;;;;;;4972423;28;20176;-68
2022/08/08 00:44:31;;;;;;;6.30;0.87;;;18.90;99.90;;;;;;4960484;28;20285;-69
2022/08/08 00:47:12;;;;;;;2.30;0.60;;;19.10;99.90;;;;;;4974302;28;20278;-71
2022/08/08 00:50:08;;;;;;;2.00;0.50;;;19.70;99.90;;;;;;4969540;28;20560;-71
2022/08/08 00:53:05;;;;;;;0.50;0.47;;;20.10;99.90;;;;;;5006355;28;20186;-68
2022/08/08 00:56:05;;;;;;;1.10;0.63;;;19.90;99.90;;;;;;5005728;28;20582;-68
2022/08/08 00:58:33;;;;;;;3.13;0.57;;;19.50;99.90;;;;;;4991846;28;20278;-68
2022/08/08 01:01:32;;;;;;;1.13;0.50;;;19.50;99.90;;;;;;4991665;28;20175;-68
2022/08/08 01:04:24;;;;;;;3.60;0.83;;;20.10;99.90;;;;;;4992240;28;20608;-69
2022/08/08 01:07:25;;;;;;;1.47;0.50;;;19.90;99.90;;;;;;4992307;28;20216;-68
2022/08/08 01:10:18;;;;;;;2.13;0.60;;;20.10;99.90;;;;;;4974621;28;20183;-68
2022/08/08 01:13:09;;;;;;;3.33;0.70;;;20.60;99.90;;;;;;4975715;28;20183;-68
2022/08/08 01:15:56;;;;;;;0.50;0.40;;;21.10;99.90;;;;;;4936240;28;20273;-68
2022/08/08 01:19:06;;;;;;;1.73;0.67;;;20.70;99.90;;;;;;4975615;28;20179;-67
2022/08/08 01:21:46;;;;;;;0.60;0.40;;;20.40;99.90;;;;;;4976330;28;20184;-68
2022/08/08 01:24:36;;;;;;;2.40;0.50;;;20.00;99.90;;;;;;4990096;28;20218;-69
2022/08/08 01:27:34;;;;;;;2.20;0.60;;;20.70;99.90;;;;;;4983040;28;20198;-71
2022/08/08 01:30:11;;;;;;;1.57;0.50;;;21.10;99.90;;;;;;4979601;28;20189;-68
2022/08/08 01:33:00;;;;;;;3.07;0.80;;;20.20;99.90;;;;;;4992661;28;20602;-68
2022/08/08 01:35:48;;;;;;;0.50;0.50;;;19.80;99.90;;;;;;4975693;28;20212;-70
2022/08/08 01:38:40;;;;;;;1.80;0.40;;;19.80;99.90;;;;;;4976228;28;20183;-69
2022/08/08 01:41:20;;;;;;;2.93;0.77;;;19.90;99.90;;;;;;4993432;28;20210;-69
2022/08/08 01:43:54;;;;;;;0.93;0.50;;;20.70;99.90;;;;;;4983443;28;20182;-69
2022/08/08 01:46:48;;;;;;;2.00;0.73;;;20.90;99.90;;;;;;4974837;28;20696;-72
2022/08/08 01:50:04;;;;;;;4.17;0.50;;;21.00;99.90;;;;;;4974847;28;20202;-68
2022/08/08 01:52:49;;;;;;;0.80;0.60;;;20.80;99.90;;;;;;5010426;28;20182;-69
2022/08/08 01:55:34;;;;;;;1.40;0.57;;;21.00;99.90;;;;;;5008413;28;20167;-71
2022/08/08 01:58:28;;;;;;;1.00;0.43;;;21.30;99.90;;;;;;4994196;28;20265;-70
2022/08/08 02:01:33;;;;;;;1.00;0.50;;;21.60;99.90;;;;;;4978627;28;20677;-68
2022/08/08 02:04:24;;;;;;;1.23;0.50;;;22.00;99.90;;;;;;4946721;28;20233;-68
2022/08/08 02:07:01;;;;;;;4.90;0.50;;;22.20;99.90;;;;;;4984676;28;20711;-67
2022/08/08 02:09:53;;;;;;;1.83;0.50;;;22.00;99.90;;;;;;4993754;28;20221;-69
2022/08/08 02:12:47;;;;;;;1.93;0.37;;;21.60;99.90;;;;;;4980982;28;20302;-69
2022/08/08 02:15:36;;;;;;;1.47;0.50;;;21.50;99.90;;;;;;4986298;28;20761;-70
2022/08/08 02:18:30;;;;;;;2.03;0.40;;;21.10;99.90;;;;;;4993475;28;21199;-74
2022/08/08 02:24:15;;;;;;;3.87;0.60;;;22.10;99.90;;;;;;4977797;28;20302;-68
2022/08/08 02:26:50;;;;;;;1.47;0.50;;;21.80;99.90;;;;;;4981688;28;20237;-69
2022/08/08 02:29:56;;;;;;;1.80;0.40;;;21.50;99.90;;;;;;4974181;28;20238;-67
2022/08/08 02:32:54;;;;;;;1.43;0.43;;;21.40;99.90;;;;;;4960527;28;20194;-68
2022/08/08 02:35:46;;;;;;;2.90;0.43;;;22.30;99.90;;;;;;4985517;28;20183;-75
2022/08/08 02:38:43;;;;;;;2.00;0.70;;;21.60;99.90;;;;;;4991464;28;20182;-68
2022/08/08 02:42:05;;;;;;;2.93;0.50;;;20.60;99.90;;;;;;4989680;28;20220;-71
2022/08/08 02:44:44;;;;;;;1.67;0.63;;;19.20;99.90;;;;;;4902165;29;20273;-67
2022/08/08 02:47:50;;;;;;;1.93;1.27;;;19.10;99.90;;;;;;4879414;29;20610;-67
2022/08/08 02:50:44;;;;;;;0.77;0.40;;;20.20;99.90;;;;;;4979895;28;20237;-68
2022/08/08 02:53:38;;;;;;;0.53;0.43;;;21.30;99.90;;;;;;4991196;28;20202;-69
2022/08/08 02:56:42;;;;;;;1.60;0.50;;;21.70;99.90;;;;;;4990054;28;20681;-68
2022/08/08 02:59:45;;;;;;;1.17;0.50;;;21.90;99.90;;;;;;4990821;28;20271;-68
2022/08/08 03:02:45;;;;;;;1.10;0.47;;;21.80;99.90;;;;;;4992245;28;20276;-67
2022/08/08 03:05:49;;;;;;;1.80;0.43;;;22.40;99.90;;;;;;4991694;28;20222;-68
2022/08/08 03:08:19;;;;;;;3.47;0.50;;;22.00;99.90;;;;;;4992167;28;20549;-67
2022/08/08 03:11:23;;;;;;;1.33;0.50;;;21.10;99.90;;;;;;4992758;28;20238;-68
2022/08/08 03:14:31;;;;;;;4.67;0.60;;;21.70;99.90;;;;;;4993181;28;20198;-68
2022/08/08 03:17:10;;;;;;;1.13;0.40;;;21.80;99.90;;;;;;4990620;28;20179;-68
2022/08/08 03:20:01;;;;;;;2.50;0.40;;;21.50;99.90;;;;;;4975646;28;20183;-67
2022/08/08 03:22:41;;;;;;;0.50;0.43;;;21.50;99.90;;;;;;4972209;28;20213;-68
2022/08/08 03:25:12;;;;;;;1.07;0.43;;;22.50;99.90;;;;;;4987448;28;20210;-67
2022/08/08 03:27:45;;;;;;;1.57;0.30;;;23.20;99.90;;;;;;4990618;28;20605;-68
2022/08/08 03:30:15;;;;;;;1.23;0.33;;;22.20;93.40;;;;;;4990490;28;20183;-68
2022/08/08 03:35:29;;;;;;;1.60;0.50;;;20.90;99.90;;;;;;4980431;28;20269;-69
2022/08/08 03:37:59;;;;;;;1.77;0.43;;;21.20;99.90;;;;;;4972632;28;20957;-68
2022/08/08 03:40:29;;;;;;;0.60;0.40;;;22.00;99.90;;;;;;4954203;28;20613;-71
2022/08/08 03:43:01;;;;;;;2.00;0.57;;;22.80;99.90;;;;;;4970649;28;20199;-73
2022/08/08 03:45:31;;;;;;;2.33;0.50;;;23.30;88.00;;;;;;4975883;28;20221;-73
2022/08/08 03:48:07;;;;;;;0.43;0.30;;;21.50;90.30;;;;;;4959017;28;20240;-69
2022/08/08 03:50:36;;;;;;;0.43;0.43;;;20.90;95.20;;;;;;4973575;28;20648;-69
2022/08/08 03:53:12;;;;;;;1.37;0.60;;;20.40;91.50;;;;;;4974613;28;20187;-72
2022/08/08 03:55:41;;;;;;;1.67;0.50;;;20.00;98.60;;;;;;4980674;28;20534;-68
2022/08/08 03:58:22;;;;;;;2.07;0.60;;;20.10;99.90;;;;;;4975590;28;20554;-68
2022/08/08 04:00:54;;;;;;;2.23;0.50;;;20.50;99.90;;;;;;4991202;28;20275;-71
2022/08/08 04:03:24;;;;;;;1.03;0.50;;;20.40;99.90;;;;;;4993433;28;20181;-68
2022/08/08 04:05:54;;;;;;;1.07;0.50;;;19.80;99.90;;;;;;4991652;28;20231;-70
2022/08/08 04:08:24;;;;;;;1.50;0.50;;;19.50;99.90;;;;;;4974669;28;20190;-68
2022/08/08 04:10:52;;;;;;;0.73;0.47;;;19.10;99.90;;;;;;4973671;28;20210;-69
2022/08/08 04:13:20;;;;;;;2.13;0.50;;;18.80;99.90;;;;;;4973970;28;20187;-69
2022/08/08 04:15:48;;;;;;;2.30;0.60;;;18.70;99.90;;;;;;4990126;28;20197;-68
2022/08/08 04:18:15;;;;;;;1.07;0.50;;;18.60;99.90;;;;;;4991847;28;20178;-72
2022/08/08 04:20:42;;;;;;;1.30;0.50;;;18.60;99.90;;;;;;4991974;28;20179;-72
2022/08/08 04:23:10;;;;;;;0.90;0.50;;;18.40;99.90;;;;;;4990941;28;20187;-69
2022/08/08 04:25:37;;;;;;;2.33;0.40;;;18.30;99.90;;;;;;4991510;28;20746;-69
2022/08/08 04:28:05;;;;;;;0.83;0.50;;;18.20;99.90;;;;;;4991704;28;20182;-68
2022/08/08 04:30:32;;;;;;;0.40;0.40;;;18.00;99.90;;;;;;4974426;28;20182;-69
2022/08/08 04:32:59;;;;;;;3.13;0.73;;;17.90;99.90;;;;;;4975057;28;20234;-69
2022/08/08 04:35:28;;;;;;;4.30;0.60;;;17.90;99.90;;;;;;4985999;28;20182;-69
2022/08/08 04:37:56;;;;;;;2.27;0.50;;;18.00;99.90;;;;;;4990249;28;20241;-70
2022/08/08 04:40:23;;;;;;;0.50;0.43;;;18.80;99.90;;;;;;4991105;28;20186;-68
2022/08/08 04:42:51;;;;;;;2.07;0.50;;;19.20;99.90;;;;;;4991078;28;20241;-68
2022/08/08 04:45:18;;;;;;;1.23;0.60;;;19.80;99.90;;;;;;4975136;28;20221;-69
2022/08/08 04:47:46;;;;;;;0.60;0.60;;;20.20;99.90;;;;;;4975757;28;20234;-68
2022/08/08 04:50:13;;;;;;;1.47;0.50;;;19.80;99.90;;;;;;4982331;28;20183;-69
2022/08/08 04:52:40;;;;;;;5.43;0.67;;;19.20;99.90;;;;;;4993693;28;20646;-70
2022/08/08 04:55:08;;;;;;;1.57;0.60;;;19.10;99.90;;;;;;4976328;28;20210;-69
2022/08/08 04:57:36;;;;;;;2.30;0.60;;;18.90;99.90;;;;;;4975785;28;20191;-68
2022/08/08 05:00:07;;;;;;;1.20;0.60;;;18.60;99.90;;;;;;4975846;28;20233;-70
2022/08/08 05:02:35;;;;;;;3.47;0.80;;;18.40;99.90;;;;;;4975847;28;20194;-69
2022/08/08 05:05:02;;;;;;;2.43;0.50;;;18.20;99.90;;;;;;4975725;28;20298;-69
2022/08/08 05:07:30;;;;;;;1.90;0.70;;;17.90;99.90;;;;;;4993147;28;20301;-72
2022/08/08 05:09:57;;;;;;;2.27;0.57;;;17.70;99.90;;;;;;4995265;28;20265;-69
2022/08/08 05:12:24;;;;;;;2.17;0.80;;;17.60;99.90;;;;;;4994975;28;20643;-69
2022/08/08 05:14:52;;;;;;;2.97;1.07;;;17.40;99.90;;;;;;4994786;28;20221;-72
2022/08/08 05:17:19;;;;;;;2.57;0.70;;;17.20;99.90;;;;;;4994441;28;20705;-71
2022/08/08 05:19:47;;;;;;;3.63;0.70;;;17.20;99.90;;;;;;4986179;28;20639;-71
2022/08/08 05:22:14;;;;;;;3.17;0.90;;;17.50;99.90;;;;;;4975586;28;20184;-73
2022/08/08 05:24:42;;;;;;;2.37;0.90;;;17.80;99.90;;;;;;4980372;28;20190;-69
2022/08/08 05:27:10;;;;;;;5.47;0.87;;;17.80;99.90;;;;;;4994663;28;20179;-69
2022/08/08 05:29:38;;;;;;;1.13;0.60;;;18.00;99.90;;;;;;4994832;28;20174;-69
2022/08/08 05:32:06;;;;;;;2.10;0.67;;;17.90;99.90;;;;;;4989911;28;20197;-69
2022/08/08 05:34:45;;;;;;;2.60;1.00;;;17.60;99.90;;;;;;4994791;28;20244;-73
2022/08/08 05:37:16;;;;;;;9.10;1.10;;;17.60;99.90;;;;;;4994218;28;20201;-69
2022/08/08 05:39:51;;;;;;;3.07;0.90;;;17.60;99.90;;;;;;4984313;28;20183;-73
2022/08/08 05:42:44;;;;;;;3.50;0.60;;;17.60;99.90;;;;;;4980917;28;20189;-71
2022/08/08 05:45:12;;;;;;;4.60;0.90;;;17.70;99.90;;;;;;4992260;28;20696;-67
2022/08/08 05:47:41;;;;;;;2.03;0.90;;;17.60;99.90;;;;;;5011521;28;20229;-67
2022/08/08 05:50:10;;;;;;;2.47;0.80;;;17.50;99.90;;;;;;5009293;28;20193;-68
2022/08/08 05:52:38;;;;;;;2.50;0.93;;;17.50;99.90;;;;;;4994377;28;20189;-68
2022/08/08 05:55:09;;;;;;;4.10;0.77;;;17.30;99.90;;;;;;4993944;28;20221;-68
2022/08/08 05:57:38;;;;;;;2.57;1.00;;;17.10;99.90;;;;;;4994312;28;20179;-67
2022/08/08 06:00:09;;;;;;;2.03;0.97;;;16.90;99.90;;;;;;4993942;28;20197;-68
2022/08/08 06:05:23;;;;;;;2.00;0.70;;;16.90;99.90;;;;;;4974919;28;20330;-68
2022/08/08 06:07:51;;;;;;;2.70;1.00;;;16.70;99.90;;;;;;4957433;28;21022;-72
2022/08/08 06:10:19;;;;;;;6.77;1.20;;;16.60;99.90;;;;;;4974484;28;20175;-69
2022/08/08 06:12:49;;;;;;;4.70;1.00;;;16.50;99.90;;;;;;4981156;28;20182;-73
2022/08/08 06:15:17;;;;;;;2.90;1.17;;;16.30;99.90;;;;;;4993703;28;20561;-73
2022/08/08 06:17:44;;;;;;;3.77;0.90;;;16.20;99.90;;;;;;4993929;28;20184;-70
2022/08/08 06:20:12;;;;;;;2.60;0.70;;;16.20;99.90;;;;;;4993114;28;20664;-69
2022/08/08 06:22:40;;;;;;;3.10;1.10;;;16.10;99.90;;;;;;4993631;28;20182;-70
2022/08/08 06:25:09;;;;;;;3.00;0.90;;;16.00;99.90;;;;;;4992591;28;20298;-69
2022/08/08 06:27:42;;;;;;;3.87;0.70;;;16.00;99.90;;;;;;4962834;28;20282;-72
2022/08/08 06:30:11;;;;;;;5.50;1.10;;;15.90;99.90;;;;;;4973943;28;20182;-70
2022/08/08 06:32:52;;;;;;;3.70;1.30;;;15.80;99.90;;;;;;4973943;28;20297;-72
2022/08/08 06:35:20;;;;;;;1.13;0.70;;;15.70;99.90;;;;;;4973938;28;20214;-72
2022/08/08 06:37:51;;;;;;;4.50;0.90;;;15.70;99.90;;;;;;4973907;28;20199;-70
2022/08/08 06:40:19;;;;;;;3.63;1.30;;;15.60;99.90;;;;;;4986813;28;20187;-72
2022/08/08 06:43:01;;;;;;;4.73;1.40;;;15.50;99.90;;;;;;4974194;28;20631;-70
2022/08/08 06:45:32;;;;;;;2.23;0.80;;;15.50;99.90;;;;;;4977874;28;20241;-72
2022/08/08 06:48:04;;;;;;;2.47;0.90;;;15.50;99.90;;;;;;4973745;28;20966;-67
2022/08/08 06:50:33;;;;;;;1.90;0.70;;;15.40;99.90;;;;;;4973936;28;20226;-68
2022/08/08 06:53:03;;;;;;;1.40;0.90;;;15.40;99.90;;;;;;4977365;28;20197;-71
2022/08/08 06:55:31;;;;;;;3.13;0.70;;;15.30;99.90;;;;;;4992505;28;20178;-68
2022/08/08 06:57:59;;;;;;;3.13;1.33;;;15.20;99.90;;;;;;4993147;28;20248;-71
2022/08/08 07:00:32;;;;;;;5.03;1.00;;;15.00;99.90;;;;;;4993211;28;20217;-68
2022/08/08 07:03:05;;;;;;;1.93;1.00;;;14.90;99.90;;;;;;4992491;28;20176;-70
2022/08/08 07:05:36;;;;;;;2.50;1.10;;;14.80;99.90;;;;;;4972226;28;20238;-73
2022/08/08 07:08:17;;;;;;;4.27;1.03;;;14.80;99.90;;;;;;4988219;28;20229;-70
2022/08/08 07:10:52;;;;;;;4.07;1.17;;;14.70;99.90;;;;;;4987898;28;20208;-70
2022/08/08 07:13:20;;;;;;;6.10;1.50;;;14.50;99.90;;;;;;4973796;28;20177;-71
2022/08/08 07:16:11;;;;;;;3.87;1.10;;;14.50;99.90;;;;;;4991737;28;20177;-68
2022/08/08 07:18:51;;;;;;;3.63;1.10;;;14.30;99.90;;;;;;4992898;28;20181;-68
2022/08/08 07:21:22;;;;;;;2.77;1.03;;;14.30;99.90;;;;;;4992581;28;20292;-71
2022/08/08 07:24:06;;;;;;;4.93;0.93;;;14.20;99.90;;;;;;4986009;28;20196;-71
2022/08/08 07:26:37;;;;;;;10.20;1.60;;;14.20;99.90;;;;;;4990735;28;20222;-68
2022/08/08 07:29:05;;;;;;;6.60;1.20;;;14.30;99.90;;;;;;4992050;28;20188;-69
2022/08/08 07:31:34;;;;;;;3.97;1.10;;;14.10;99.90;;;;;;4992332;28;20199;-69
2022/08/08 07:34:03;;;;;;;3.43;0.93;;;14.00;99.90;;;;;;4992183;28;20736;-69
2022/08/08 07:36:32;;;;;;;3.47;0.90;;;13.90;99.90;;;;;;4977598;28;20269;-71
2022/08/08 07:39:04;;;;;;;2.50;0.97;;;13.80;99.90;;;;;;4974863;28;20191;-72
2022/08/08 07:41:41;;;;;;;6.27;1.00;;;13.80;99.90;;;;;;4985732;28;20181;-70
2022/08/08 07:44:24;;;;;;;4.07;1.20;;;13.70;99.90;;;;;;4974187;28;20190;-69
2022/08/08 07:46:51;;;;;;;6.90;1.17;;;13.60;99.90;;;;;;4971852;28;20224;-68
2022/08/08 07:49:19;;;;;;;2.77;1.30;;;13.60;99.90;;;;;;4974688;28;20189;-68
2022/08/08 07:51:48;;;;;;;3.23;1.13;;;13.60;99.90;;;;;;4990550;28;20185;-71
2022/08/08 07:54:47;;;;;;;3.17;0.97;;;13.50;99.90;;;;;;4974387;28;20657;-69
2022/08/08 07:57:32;;;;;;;6.37;1.23;;;13.40;99.90;;;;;;4991946;28;20278;-71
2022/08/08 08:00:07;;;;;;;1.57;1.00;;;13.40;99.90;;;;;;4992368;28;20172;-69
2022/08/08 08:02:55;;;;;;;7.43;1.80;;;13.30;99.90;;;;;;4992483;28;20185;-70
2022/08/08 08:05:28;;;;;;;8.50;1.40;;;13.30;99.90;;;;;;4974851;28;20721;-72
2022/08/08 08:08:19;;;;;;;3.67;1.07;;;13.20;99.90;;;;;;4981642;28;20190;-69
2022/08/08 08:10:55;;;;;;;7.90;1.00;;;13.10;99.90;;;;;;4972896;28;20192;-69
2022/08/08 08:13:40;;;;;;;3.70;1.17;;;13.10;99.90;;;;;;4987826;28;20186;-69
2022/08/08 08:16:10;;;;;;;2.23;0.93;;;13.00;99.90;;;;;;4991260;28;20659;-69
2022/08/08 08:18:48;;;;;;;3.37;1.27;;;13.00;99.90;;;;;;4992600;28;20215;-69
2022/08/08 08:21:20;;;;;;;5.43;1.50;;;12.90;99.90;;;;;;4996494;28;20199;-69
2022/08/08 08:23:48;;;;;;;9.40;1.90;;;12.80;99.90;;;;;;4979283;28;20591;-72
2022/08/08 08:26:17;;;;;;;4.10;1.63;;;12.80;99.90;;;;;;4994738;28;20282;-70
2022/08/08 08:28:45;;;;;;;9.83;1.50;;;12.70;99.90;;;;;;4990747;28;20171;-72
2022/08/08 08:31:14;;;;;;;4.33;1.83;;;12.60;99.90;;;;;;4962515;28;20184;-68
2022/08/08 08:33:41;;;;;;;2.90;1.27;;;12.50;99.90;;;;;;4959278;28;20216;-71
2022/08/08 08:36:10;;;;;;;4.23;1.50;;;12.50;99.90;;;;;;4976493;28;20267;-69
2022/08/08 08:38:41;;;;;;;3.87;1.60;;;12.50;99.90;;;;;;4976424;28;20173;-68
2022/08/08 08:41:11;;;;;;;6.03;1.63;;;12.40;99.90;;;;;;4981375;28;20292;-73
2022/08/08 08:43:40;;;;;;;3.70;1.93;;;12.40;99.90;;;;;;4962600;28;20275;-71
2022/08/08 08:46:12;;;;;;;4.57;1.90;;;12.30;99.90;;;;;;4989490;28;20662;-71
2022/08/08 08:48:43;;;;;;;7.17;2.20;;;12.30;99.90;;;;;;4997249;28;20231;-72
2022/08/08 08:51:15;;;;;;;5.10;1.80;;;12.20;99.90;;;;;;4996827;28;20176;-71
2022/08/08 08:53:53;;;;;;;9.60;3.33;;;12.20;99.90;;;;;;4977864;28;20208;-69
2022/08/08 08:56:23;;;;;;;6.30;2.30;;;12.20;99.90;;;;;;4995508;28;20179;-71
2022/08/08 08:58:52;;;;;;;7.17;2.10;;;12.20;99.90;;;;;;4995512;28;20264;-72
2022/08/08 09:01:23;;;;;;;4.30;2.00;;;12.10;99.90;;;;;;4972266;28;20181;-70
2022/08/08 09:03:52;;;;;;;6.77;2.37;;;12.20;99.90;;;;;;4980790;28;20183;-68
2022/08/08 09:06:40;;;;;;;3.60;2.03;;;12.10;99.90;;;;;;4995092;28;20303;-69
2022/08/08 09:09:22;;;;;;;4.40;2.30;;;12.20;99.90;;;;;;4995536;28;20261;-69
2022/08/08 09:11:53;;;;;;;4.80;2.30;;;12.10;99.90;;;;;;4993680;28;20180;-71
2022/08/08 09:14:26;;;;;;;7.50;2.80;;;12.00;99.90;;;;;;4995191;28;20690;-71
2022/08/08 09:16:55;;;;;;;8.53;2.63;;;12.00;99.90;;;;;;4977659;28;20236;-71
2022/08/08 09:19:24;;;;;;;11.83;4.00;;;12.00;99.90;;;;;;4977675;28;20227;-70
2022/08/08 09:21:51;;;;;;;8.67;3.63;;;11.90;99.90;;;;;;4995177;28;20550;-70
2022/08/08 09:24:19;;;;;;;7.33;2.77;;;12.00;99.90;;;;;;4976023;28;20199;-70
2022/08/08 09:26:56;;;;;;;6.80;3.27;;;12.00;99.90;;;;;;4975447;28;20208;-71
2022/08/08 09:29:25;;;;;;;8.47;2.60;;;12.00;99.90;;;;;;4975182;28;20207;-68
2022/08/08 09:32:06;;;;;;;9.70;2.83;;;12.00;99.90;;;;;;4975568;28;20209;-71
2022/08/08 09:34:38;;;;;;;5.37;2.33;;;12.00;99.90;;;;;;4958157;28;20638;-72
2022/08/08 09:37:09;;;;;;;7.37;2.00;;;12.00;99.90;;;;;;4975468;28;20229;-69
2022/08/08 09:39:57;;;;;;;5.80;1.60;;;11.90;99.90;;;;;;4975697;28;20583;-68
2022/08/08 09:42:38;;;;;;;6.40;4.67;;;11.90;99.90;;;;;;4978071;28;20580;-69
2022/08/08 09:45:09;;;;;;;19.10;12.70;;;11.90;99.90;;;;;;4994727;28;20207;-70
2022/08/08 09:47:39;;;;;;;10.17;5.60;;;12.00;99.90;;;;;;4988904;28;20247;-69
2022/08/08 09:50:12;;;;;;;9.43;3.23;;;11.90;99.90;;;;;;4975322;28;20242;-70
2022/08/08 09:52:43;;;;;;;9.33;4.83;;;11.90;99.90;;;;;;4979646;28;20176;-69
2022/08/08 09:55:10;;;;;;;6.67;2.70;;;11.90;99.90;;;;;;4994936;28;20175;-70
2022/08/08 09:57:40;;;;;;;4.63;1.47;;;11.80;99.90;;;;;;4995516;28;20230;-71
2022/08/08 10:00:10;;;;;;;7.23;1.80;;;11.70;99.90;;;;;;4995333;28;20212;-70
2022/08/08 10:02:40;;;;;;;6.73;1.90;;;11.70;99.90;;;;;;4990238;28;20208;-68
2022/08/08 10:05:12;;;;;;;3.97;2.03;;;11.60;99.90;;;;;;4990350;28;20543;-69
2022/08/08 10:07:52;;;;;;;6.93;2.87;;;11.60;99.90;;;;;;4982442;28;20207;-72
2022/08/08 10:10:31;;;;;;;5.53;2.40;;;11.50;99.90;;;;;;4994200;28;20175;-71
2022/08/08 10:13:00;;;;;;;7.83;2.27;;;11.50;99.90;;;;;;4986205;28;20626;-69
2022/08/08 10:15:35;;;;;;;4.30;2.80;;;11.40;99.90;;;;;;4974658;28;20177;-71
2022/08/08 10:18:03;;;;;;;5.43;2.70;;;11.40;99.90;;;;;;4975333;28;20250;-71
2022/08/08 10:20:44;;;;;;;4.20;2.70;;;11.20;99.90;;;;;;4976052;28;20193;-72
2022/08/08 10:23:14;;;;;;;6.00;1.93;;;11.20;99.90;;;;;;4987732;28;20226;-70
2022/08/08 10:25:44;;;;;;;7.20;2.43;;;11.20;99.90;;;;;;4994649;28;20211;-69
2022/08/08 10:28:20;;;;;;;8.27;2.33;;;11.10;99.90;;;;;;4995025;28;20595;-70
2022/08/08 10:30:59;;;;;;;6.00;2.40;;;11.00;99.90;;;;;;4995215;28;20200;-72
2022/08/08 10:33:33;;;;;;;5.63;2.90;;;10.90;99.90;;;;;;4986439;28;20185;-68
2022/08/08 10:36:03;;;;;;;5.30;2.60;;;10.80;99.90;;;;;;4975680;28;20231;-69
2022/08/08 10:38:34;;;;;;;6.30;2.37;;;10.80;99.90;;;;;;4975755;28;20232;-70
2022/08/08 10:41:03;;;;;;;4.63;2.33;;;10.80;99.90;;;;;;4975483;28;20525;-69
2022/08/08 10:43:41;;;;;;;8.57;1.90;;;10.80;99.90;;;;;;4977760;28;20188;-70
2022/08/08 10:46:26;;;;;;;6.13;2.07;;;10.80;99.90;;;;;;4994751;28;20674;-69
2022/08/08 10:48:54;;;;;;;3.77;2.13;;;10.70;99.90;;;;;;4979971;28;20289;-71
2022/08/08 10:51:34;;;;;;;5.07;2.10;;;10.70;99.90;;;;;;4995193;28;20270;-68
2022/08/08 10:54:01;;;;;;;5.60;1.97;;;10.70;99.90;;;;;;4988148;28;20183;-70
2022/08/08 10:56:35;;;;;;;3.80;1.70;;;10.70;99.90;;;;;;4976000;28;20272;-70
2022/08/08 10:59:07;;;;;;;3.00;1.77;;;10.70;99.90;;;;;;4975523;28;20187;-71
2022/08/08 11:01:38;;;;;;;2.80;1.60;;;10.70;99.90;;;;;;4982584;28;20226;-70
2022/08/08 11:04:08;;;;;;;4.17;1.70;;;10.70;99.90;;;;;;4988364;28;20276;-71
2022/08/08 11:06:37;;;;;;;6.63;1.60;;;10.70;99.90;;;;;;4975167;28;20299;-69
2022/08/08 11:09:07;;;;;;;6.50;2.03;;;10.80;99.90;;;;;;4975292;28;20258;-69
2022/08/08 11:11:38;;;;;;;2.50;1.47;;;10.80;99.90;;;;;;4975200;28;20227;-69
2022/08/08 11:14:07;;;;;;;5.10;1.90;;;10.80;99.90;;;;;;4981050;28;20214;-71
2022/08/08 11:16:44;;;;;;;4.30;1.77;;;10.80;99.90;;;;;;4994607;28;20182;-70
2022/08/08 11:19:13;;;;;;;3.07;1.67;;;10.80;99.90;;;;;;4994657;28;20184;-70
2022/08/08 11:21:44;;;;;;;5.83;2.37;;;10.80;99.90;;;;;;4976969;28;20627;-68
2022/08/08 11:24:12;;;;;;;6.97;2.33;;;10.70;99.90;;;;;;4981433;28;20183;-70
2022/08/08 11:26:42;;;;;;;6.20;2.20;;;10.70;99.90;;;;;;4994040;28;20298;-69
2022/08/08 11:29:11;;;;;;;4.53;2.97;;;10.70;99.90;;;;;;4992927;28;20183;-70
2022/08/08 11:31:50;;;;;;;3.97;2.23;;;10.60;99.90;;;;;;4994244;28;20183;-69
2022/08/08 11:34:20;;;;;;;7.33;1.90;;;10.60;99.90;;;;;;4993782;28;20197;-71
2022/08/08 11:36:49;;;;;;;3.43;1.40;;;10.60;99.90;;;;;;4978940;28;20553;-70
2022/08/08 11:39:17;;;;;;;4.27;1.30;;;10.60;99.90;;;;;;4960808;28;20190;-71
2022/08/08 11:41:51;;;;;;;2.10;1.20;;;10.60;99.90;;;;;;4993954;28;20222;-71
2022/08/08 11:44:19;;;;;;;4.33;1.67;;;10.60;99.90;;;;;;4974834;28;20242;-70
2022/08/08 11:46:56;;;;;;;2.80;1.60;;;10.60;99.90;;;;;;4974067;28;20232;-70
2022/08/08 11:49:25;;;;;;;6.50;1.53;;;10.60;99.90;;;;;;4974373;28;20183;-70
2022/08/08 11:51:53;;;;;;;2.37;1.27;;;10.60;99.90;;;;;;4974658;28;20535;-70
2022/08/08 11:54:34;;;;;;;4.33;1.60;;;10.60;99.90;;;;;;4983668;28;20630;-71
2022/08/08 11:57:19;;;;;;;5.97;1.57;;;10.60;99.90;;;;;;4991030;28;20191;-71
2022/08/08 11:59:59;;;;;;;2.47;1.43;;;10.60;99.90;;;;;;4974347;28;20198;-71
2022/08/08 12:02:30;;;;;;;2.80;1.60;;;10.60;99.90;;;;;;4974403;28;20205;-70
2022/08/08 12:05:08;;;;;;;2.13;1.27;;;10.60;99.90;;;;;;4988152;28;20225;-72
2022/08/08 12:08:05;;;;;;;4.60;1.50;;;10.60;99.90;;;;;;4993205;28;20195;-71
2022/08/08 12:10:33;;;;;;;4.53;1.60;;;10.60;99.90;;;;;;4981618;28;20645;-69
2022/08/08 12:13:06;;;;;;;5.90;1.77;;;10.60;99.90;;;;;;4962311;28;20202;-70
2022/08/08 12:15:46;;;;;;;7.33;1.90;;;10.50;99.90;;;;;;4974249;28;20661;-71
2022/08/08 12:18:26;;;;;;;4.43;2.20;;;10.50;99.90;;;;;;4994039;28;20277;-69
2022/08/08 12:20:56;;;;;;;4.20;1.80;;;10.60;99.90;;;;;;4976138;28;20226;-70
2022/08/08 12:24:01;;;;;;;3.97;1.60;;;10.50;99.90;;;;;;4992286;28;20179;-69
2022/08/08 12:26:50;;;;;;;4.43;2.10;;;10.50;99.90;;;;;;4975816;28;20228;-69
2022/08/08 12:29:34;;;;;;;3.20;2.00;;;10.50;99.90;;;;;;4977017;28;20198;-71
2022/08/08 12:32:08;;;;;;;7.40;2.07;;;10.50;99.90;;;;;;4988246;28;20179;-71
2022/08/08 12:34:41;;;;;;;3.47;1.70;;;10.50;99.90;;;;;;4974383;28;20237;-68
2022/08/08 12:37:28;;;;;;;3.57;1.50;;;10.40;99.90;;;;;;4974239;28;20676;-72
2022/08/08 12:39:59;;;;;;;3.13;1.37;;;10.40;99.90;;;;;;4956738;28;20183;-69
2022/08/08 12:42:29;;;;;;;4.60;1.43;;;10.40;99.90;;;;;;4964895;28;20187;-71
2022/08/08 12:45:09;;;;;;;1.90;1.37;;;10.30;99.90;;;;;;4973859;28;20190;-70
2022/08/08 12:47:37;;;;;;;2.63;1.47;;;10.30;99.90;;;;;;4973703;28;20246;-68
2022/08/08 12:50:05;;;;;;;4.63;1.50;;;10.30;99.90;;;;;;4987282;28;20190;-70
2022/08/08 12:52:34;;;;;;;7.67;1.93;;;10.30;99.90;;;;;;4984104;28;20189;-71
2022/08/08 12:55:05;;;;;;;2.13;1.50;;;10.30;99.90;;;;;;4974007;28;20631;-70
2022/08/08 12:57:33;;;;;;;4.27;1.70;;;10.30;99.90;;;;;;4974676;28;20208;-71
2022/08/08 13:00:00;;;;;;;3.27;1.60;;;10.30;99.90;;;;;;4974277;28;20707;-69
2022/08/08 13:02:32;;;;;;;4.03;1.97;;;10.30;99.90;;;;;;4982569;28;20184;-69
2022/08/08 13:05:05;;;;;;;4.83;2.00;;;10.30;99.90;;;;;;4994247;28;20265;-70
2022/08/08 13:07:45;;;;;;;2.93;1.57;;;10.30;99.90;;;;;;4979409;28;20617;-71
2022/08/08 13:10:18;;;;;;;1.80;1.30;;;10.30;99.90;;;;;;4977644;28;20185;-70
2022/08/08 13:12:47;;;;;;;1.83;1.47;;;10.30;99.90;;;;;;4987898;28;20189;-69
2022/08/08 13:15:21;;;;;;;2.23;1.30;;;10.30;99.90;;;;;;4996893;28;20241;-69
2022/08/08 13:17:50;;;;;;;5.30;1.30;;;10.30;99.90;;;;;;4979668;28;20202;-69
2022/08/08 13:20:22;;;;;;;2.77;1.40;;;10.30;99.90;;;;;;4996888;28;20180;-69
2022/08/08 13:22:50;;;;;;;1.77;1.20;;;10.30;99.90;;;;;;4984338;28;20271;-71
2022/08/08 13:25:33;;;;;;;2.20;1.30;;;10.30;99.90;;;;;;4977278;28;20215;-69
2022/08/08 13:28:05;;;;;;;4.17;1.70;;;10.30;99.90;;;;;;4977243;28;20183;-71
2022/08/08 13:30:33;;;;;;;2.00;1.20;;;10.30;99.90;;;;;;4976655;28;20563;-71
2022/08/08 13:33:03;;;;;;;3.07;1.27;;;10.20;99.90;;;;;;4990265;28;20199;-71
2022/08/08 13:35:30;;;;;;;1.63;1.30;;;10.10;99.90;;;;;;4979057;28;20586;-71
2022/08/08 13:38:03;;;;;;;2.67;1.63;;;10.10;99.90;;;;;;4996426;28;20183;-71
2022/08/08 13:40:32;;;;;;;2.13;1.30;;;10.00;99.90;;;;;;4996478;28;20610;-70